sensor_id;sensor_type;location;lat;lon;timestamp;pressure;altitude;pressure_sealevel;temperature;humidity
29461;BME280;16428;47.836;35.106;2023-02-23T00:02:11;101676.56;;;-1.78;70.64
29461;BME280;16428;47.836;35.106;2023-02-23T00:04:38;101683.63;;;-1.79;71.71
29461;BME280;16428;47.836;35.106;2023-02-23T00:07:06;101685.72;;;-1.68;72.78
29461;BME280;16428;47.836;35.106;2023-02-23T00:09:34;101688.16;;;-1.82;74.99
29461;BME280;16428;47.836;35.106;2023-02-23T00:12:04;101691.59;;;-1.80;75.17
29461;BME280;16428;47.836;35.106;2023-02-23T00:14:35;101690.84;;;-1.65;74.81
29461;BME280;16428;47.836;35.106;2023-02-23T00:17:08;101693.72;;;-1.69;75.78
29461;BME280;16428;47.836;35.106;2023-02-23T00:19:41;101693.59;;;-1.85;77.98
29461;BME280;16428;47.836;35.106;2023-02-23T00:22:11;101702.84;;;-1.95;77.64
29461;BME280;16428;47.836;35.106;2023-02-23T00:24:39;101706.41;;;-1.96;79.06
29461;BME280;16428;47.836;35.106;2023-02-23T00:27:11;101707.78;;;-2.06;79.10
29461;BME280;16428;47.836;35.106;2023-02-23T00:29:47;101714.75;;;-2.05;78.85
29461;BME280;16428;47.836;35.106;2023-02-23T00:32:16;101716.66;;;-2.28;75.20
29461;BME280;16428;47.836;35.106;2023-02-23T00:34:47;101720.94;;;-2.06;76.34
29461;BME280;16428;47.836;35.106;2023-02-23T00:37:19;101722.50;;;-2.02;75.77
29461;BME280;16428;47.836;35.106;2023-02-23T00:39:49;101718.75;;;-2.16;74.65
29461;BME280;16428;47.836;35.106;2023-02-23T00:42:17;101732.47;;;-2.09;75.22
29461;BME280;16428;47.836;35.106;2023-02-23T00:44:45;101729.63;;;-2.23;75.30
29461;BME280;16428;47.836;35.106;2023-02-23T00:47:15;101733.91;;;-2.02;74.02
29461;BME280;16428;47.836;35.106;2023-02-23T00:49:42;101730.34;;;-2.20;73.50
29461;BME280;16428;47.836;35.106;2023-02-23T00:52:11;101727.72;;;-2.20;75.02
29461;BME280;16428;47.836;35.106;2023-02-23T00:54:42;101725.06;;;-2.20;74.63
29461;BME280;16428;47.836;35.106;2023-02-23T00:57:09;101726.00;;;-2.21;74.01
29461;BME280;16428;47.836;35.106;2023-02-23T00:59:37;101727.34;;;-2.31;74.87
29461;BME280;16428;47.836;35.106;2023-02-23T01:02:04;101735.75;;;-2.23;74.42
29461;BME280;16428;47.836;35.106;2023-02-23T01:04:32;101734.03;;;-2.24;73.99
29461;BME280;16428;47.836;35.106;2023-02-23T01:07:00;101730.97;;;-2.33;73.97
29461;BME280;16428;47.836;35.106;2023-02-23T01:09:30;101734.31;;;-2.30;74.38
29461;BME280;16428;47.836;35.106;2023-02-23T01:12:00;101730.31;;;-2.38;76.07
29461;BME280;16428;47.836;35.106;2023-02-23T01:14:28;101731.44;;;-2.44;73.75
29461;BME280;16428;47.836;35.106;2023-02-23T01:16:58;101725.56;;;-2.30;74.96
29461;BME280;16428;47.836;35.106;2023-02-23T01:19:25;101737.34;;;-2.39;76.09
29461;BME280;16428;47.836;35.106;2023-02-23T01:21:53;101742.69;;;-2.40;76.34
29461;BME280;16428;47.836;35.106;2023-02-23T01:24:21;101748.81;;;-2.40;75.19
29461;BME280;16428;47.836;35.106;2023-02-23T01:26:49;101748.81;;;-2.40;76.02
29461;BME280;16428;47.836;35.106;2023-02-23T01:29:16;101748.00;;;-2.42;75.16
29461;BME280;16428;47.836;35.106;2023-02-23T01:31:46;101747.66;;;-2.53;76.47
29461;BME280;16428;47.836;35.106;2023-02-23T01:34:14;101752.13;;;-2.55;75.92
29461;BME280;16428;47.836;35.106;2023-02-23T01:36:44;101751.31;;;-2.57;76.17
29461;BME280;16428;47.836;35.106;2023-02-23T01:39:17;101752.25;;;-2.58;76.67
29461;BME280;16428;47.836;35.106;2023-02-23T01:41:45;101751.50;;;-2.60;77.00
29461;BME280;16428;47.836;35.106;2023-02-23T01:46:44;101757.00;;;-2.66;78.80
29461;BME280;16428;47.836;35.106;2023-02-23T01:49:18;101770.28;;;-2.69;79.19
29461;BME280;16428;47.836;35.106;2023-02-23T01:51:52;101771.06;;;-2.67;79.36
29461;BME280;16428;47.836;35.106;2023-02-23T01:54:25;101767.66;;;-2.69;80.86
29461;BME280;16428;47.836;35.106;2023-02-23T01:56:57;101774.88;;;-2.74;81.08
29461;BME280;16428;47.836;35.106;2023-02-23T01:59:48;101784.47;;;-2.73;78.33
29461;BME280;16428;47.836;35.106;2023-02-23T02:02:21;101791.59;;;-2.75;79.67
29461;BME280;16428;47.836;35.106;2023-02-23T02:04:49;101785.81;;;-2.84;78.70
29461;BME280;16428;47.836;35.106;2023-02-23T02:07:23;101784.09;;;-2.64;78.50
29461;BME280;16428;47.836;35.106;2023-02-23T02:09:56;101793.44;;;-2.77;79.10
29461;BME280;16428;47.836;35.106;2023-02-23T02:12:45;101801.44;;;-2.80;78.31
29461;BME280;16428;47.836;35.106;2023-02-23T02:15:19;101794.03;;;-2.91;80.08
29461;BME280;16428;47.836;35.106;2023-02-23T02:18:16;101797.13;;;-2.81;79.97
29461;BME280;16428;47.836;35.106;2023-02-23T02:21:29;101800.00;;;-2.88;79.26
29461;BME280;16428;47.836;35.106;2023-02-23T02:36:06;101821.19;;;-2.91;79.87
29461;BME280;16428;47.836;35.106;2023-02-23T02:39:01;101820.50;;;-2.96;80.46
29461;BME280;16428;47.836;35.106;2023-02-23T02:42:08;101828.38;;;-2.96;79.88
29461;BME280;16428;47.836;35.106;2023-02-23T02:44:57;101831.38;;;-3.05;82.17
29461;BME280;16428;47.836;35.106;2023-02-23T02:47:39;101833.78;;;-2.99;79.72
29461;BME280;16428;47.836;35.106;2023-02-23T02:50:09;101839.16;;;-3.02;79.75
29461;BME280;16428;47.836;35.106;2023-02-23T02:52:50;101837.59;;;-3.06;81.61
29461;BME280;16428;47.836;35.106;2023-02-23T02:55:24;101839.16;;;-3.02;81.95
29461;BME280;16428;47.836;35.106;2023-02-23T02:57:56;101846.06;;;-2.99;80.58
29461;BME280;16428;47.836;35.106;2023-02-23T03:00:45;101844.03;;;-2.93;80.88
29461;BME280;16428;47.836;35.106;2023-02-23T03:03:35;101854.06;;;-3.02;82.09
29461;BME280;16428;47.836;35.106;2023-02-23T03:06:46;101847.34;;;-3.09;82.06
29461;BME280;16428;47.836;35.106;2023-02-23T03:09:45;101850.09;;;-3.12;82.36
29461;BME280;16428;47.836;35.106;2023-02-23T03:13:09;101847.53;;;-3.14;82.54
29461;BME280;16428;47.836;35.106;2023-02-23T03:16:42;101851.25;;;-3.20;82.90
29461;BME280;16428;47.836;35.106;2023-02-23T03:19:35;101857.31;;;-3.17;83.07
29461;BME280;16428;47.836;35.106;2023-02-23T03:25:13;101861.41;;;-3.32;83.75
29461;BME280;16428;47.836;35.106;2023-02-23T03:28:09;101861.13;;;-3.25;83.66
29461;BME280;16428;47.836;35.106;2023-02-23T03:31:11;101870.94;;;-3.08;85.14
29461;BME280;16428;47.836;35.106;2023-02-23T03:40:12;101876.25;;;-3.31;85.49
29461;BME280;16428;47.836;35.106;2023-02-23T03:43:05;101878.13;;;-3.35;85.40
29461;BME280;16428;47.836;35.106;2023-02-23T03:45:54;101880.72;;;-3.33;85.91
29461;BME280;16428;47.836;35.106;2023-02-23T03:48:42;101878.13;;;-3.35;85.73
29461;BME280;16428;47.836;35.106;2023-02-23T03:51:34;101872.28;;;-3.41;86.57
29461;BME280;16428;47.836;35.106;2023-02-23T03:54:29;101875.03;;;-3.44;86.90
29461;BME280;16428;47.836;35.106;2023-02-23T03:57:21;101889.13;;;-3.47;87.58
29461;BME280;16428;47.836;35.106;2023-02-23T04:00:14;101888.16;;;-3.44;87.61
29461;BME280;16428;47.836;35.106;2023-02-23T04:03:04;101892.44;;;-3.42;87.48
29461;BME280;16428;47.836;35.106;2023-02-23T04:05:56;101892.44;;;-3.42;87.66
29461;BME280;16428;47.836;35.106;2023-02-23T04:08:43;101894.50;;;-3.50;89.40
29461;BME280;16428;47.836;35.106;2023-02-23T04:11:36;101902.25;;;-3.47;87.67
29461;BME280;16428;47.836;35.106;2023-02-23T04:14:41;101900.75;;;-3.52;89.77
29461;BME280;16428;47.836;35.106;2023-02-23T04:17:11;101903.69;;;-3.38;90.03
29461;BME280;16428;47.836;35.106;2023-02-23T04:19:51;101911.09;;;-3.49;91.05
29461;BME280;16428;47.836;35.106;2023-02-23T04:22:20;101906.38;;;-3.40;91.00
29461;BME280;16428;47.836;35.106;2023-02-23T04:24:47;101915.75;;;-3.56;90.66
29461;BME280;16428;47.836;35.106;2023-02-23T04:27:16;101925.16;;;-3.50;88.88
29461;BME280;16428;47.836;35.106;2023-02-23T04:29:44;101933.84;;;-3.48;88.08
29461;BME280;16428;47.836;35.106;2023-02-23T04:32:13;101934.19;;;-3.58;88.13
29461;BME280;16428;47.836;35.106;2023-02-23T04:34:42;101939.88;;;-3.46;86.01
29461;BME280;16428;47.836;35.106;2023-02-23T04:37:11;101938.66;;;-3.36;85.66
29461;BME280;16428;47.836;35.106;2023-02-23T04:39:39;101950.69;;;-3.54;85.89
29461;BME280;16428;47.836;35.106;2023-02-23T04:42:07;101946.63;;;-3.63;86.67
29461;BME280;16428;47.836;35.106;2023-02-23T04:44:35;101951.91;;;-3.87;85.80
29461;BME280;16428;47.836;35.106;2023-02-23T04:47:02;101951.31;;;-3.71;86.29
29461;BME280;16428;47.836;35.106;2023-02-23T04:49:31;101950.72;;;-3.79;86.99
29461;BME280;16428;47.836;35.106;2023-02-23T04:51:59;101956.91;;;-3.57;86.31
29461;BME280;16428;47.836;35.106;2023-02-23T04:54:27;101949.91;;;-3.56;86.27
29461;BME280;16428;47.836;35.106;2023-02-23T04:56:54;101952.47;;;-3.55;85.79
29461;BME280;16428;47.836;35.106;2023-02-23T04:59:21;101963.25;;;-3.62;86.04
29461;BME280;16428;47.836;35.106;2023-02-23T05:01:49;101972.31;;;-3.71;86.30
29461;BME280;16428;47.836;35.106;2023-02-23T05:04:17;101977.78;;;-3.52;85.31
29461;BME280;16428;47.836;35.106;2023-02-23T05:06:44;101979.84;;;-3.62;85.40
29461;BME280;16428;47.836;35.106;2023-02-23T05:09:12;101979.41;;;-3.73;87.50
29461;BME280;16428;47.836;35.106;2023-02-23T05:11:40;101988.06;;;-3.71;86.73
29461;BME280;16428;47.836;35.106;2023-02-23T05:14:08;101983.03;;;-3.52;87.35
29461;BME280;16428;47.836;35.106;2023-02-23T05:16:36;101990.25;;;-3.59;87.91
29461;BME280;16428;47.836;35.106;2023-02-23T05:19:05;101987.28;;;-3.49;87.86
29461;BME280;16428;47.836;35.106;2023-02-23T05:21:36;101995.00;;;-3.45;86.46
29461;BME280;16428;47.836;35.106;2023-02-23T05:24:05;101989.34;;;-3.34;85.04
29461;BME280;16428;47.836;35.106;2023-02-23T05:26:33;101997.53;;;-3.42;83.48
29461;BME280;16428;47.836;35.106;2023-02-23T05:29:00;101998.66;;;-3.26;83.46
29461;BME280;16428;47.836;35.106;2023-02-23T05:31:28;102010.59;;;-3.40;83.02
29461;BME280;16428;47.836;35.106;2023-02-23T05:33:56;102006.22;;;-3.40;82.63
29461;BME280;16428;47.836;35.106;2023-02-23T05:36:23;102018.44;;;-3.39;83.11
29461;BME280;16428;47.836;35.106;2023-02-23T05:38:51;102017.47;;;-3.36;83.06
29461;BME280;16428;47.836;35.106;2023-02-23T05:41:38;102021.13;;;-3.40;82.21
29461;BME280;16428;47.836;35.106;2023-02-23T05:44:06;102020.31;;;-3.19;81.29
29461;BME280;16428;47.836;35.106;2023-02-23T05:46:33;102022.94;;;-2.96;80.07
29461;BME280;16428;47.836;35.106;2023-02-23T05:49:01;102019.72;;;-3.04;80.95
29461;BME280;16428;47.836;35.106;2023-02-23T05:51:31;102031.97;;;-3.03;80.16
29461;BME280;16428;47.836;35.106;2023-02-23T05:53:59;102026.47;;;-2.97;79.75
29461;BME280;16428;47.836;35.106;2023-02-23T05:56:28;102033.34;;;-3.16;80.27
29461;BME280;16428;47.836;35.106;2023-02-23T05:58:56;102036.03;;;-3.17;79.31
29461;BME280;16428;47.836;35.106;2023-02-23T06:01:26;102046.22;;;-3.08;79.25
29461;BME280;16428;47.836;35.106;2023-02-23T06:04:04;102055.22;;;-2.92;78.65
29461;BME280;16428;47.836;35.106;2023-02-23T06:06:32;102052.53;;;-2.91;78.24
29461;BME280;16428;47.836;35.106;2023-02-23T06:09:02;102052.28;;;-2.85;78.96
29461;BME280;16428;47.836;35.106;2023-02-23T06:11:30;102064.88;;;-3.16;79.24
29461;BME280;16428;47.836;35.106;2023-02-23T06:13:58;102064.84;;;-2.69;78.11
29461;BME280;16428;47.836;35.106;2023-02-23T06:16:28;102059.25;;;-2.60;77.51
29461;BME280;16428;47.836;35.106;2023-02-23T06:18:57;102070.22;;;-2.72;76.92
29461;BME280;16428;47.836;35.106;2023-02-23T06:21:25;102072.22;;;-2.56;76.56
29461;BME280;16428;47.836;35.106;2023-02-23T06:23:52;102073.97;;;-2.56;76.83
29461;BME280;16428;47.836;35.106;2023-02-23T06:26:20;102066.34;;;-2.40;76.69
29461;BME280;16428;47.836;35.106;2023-02-23T06:28:48;102065.16;;;-2.12;75.41
29461;BME280;16428;47.836;35.106;2023-02-23T06:31:15;102076.06;;;-2.21;75.61
29461;BME280;16428;47.836;35.106;2023-02-23T06:33:43;102081.34;;;-2.21;76.31
29461;BME280;16428;47.836;35.106;2023-02-23T06:36:11;102075.44;;;-2.05;76.81
29461;BME280;16428;47.836;35.106;2023-02-23T06:38:38;102082.09;;;-1.97;76.14
29461;BME280;16428;47.836;35.106;2023-02-23T06:41:07;102081.63;;;-2.06;75.30
29461;BME280;16428;47.836;35.106;2023-02-23T06:43:35;102088.28;;;-1.98;74.85
29461;BME280;16428;47.836;35.106;2023-02-23T06:46:03;102099.72;;;-1.77;74.17
29461;BME280;16428;47.836;35.106;2023-02-23T06:48:32;102097.63;;;-1.49;73.08
29461;BME280;16428;47.836;35.106;2023-02-23T06:51:00;102098.16;;;-1.61;71.40
29461;BME280;16428;47.836;35.106;2023-02-23T06:53:27;102096.84;;;-1.71;71.89
29461;BME280;16428;47.836;35.106;2023-02-23T06:55:56;102096.56;;;-1.65;73.17
29461;BME280;16428;47.836;35.106;2023-02-23T06:58:25;102096.19;;;-1.56;72.16
29461;BME280;16428;47.836;35.106;2023-02-23T07:00:56;102107.38;;;-1.71;72.11
29461;BME280;16428;47.836;35.106;2023-02-23T07:03:25;102109.78;;;-1.66;71.05
29461;BME280;16428;47.836;35.106;2023-02-23T07:05:52;102104.59;;;-1.48;70.74
29461;BME280;16428;47.836;35.106;2023-02-23T07:08:20;102108.09;;;-1.27;67.83
29461;BME280;16428;47.836;35.106;2023-02-23T07:10:49;102114.91;;;-1.42;63.88
29461;BME280;16428;47.836;35.106;2023-02-23T07:13:20;102113.44;;;-1.08;61.90
29461;BME280;16428;47.836;35.106;2023-02-23T07:15:48;102115.53;;;-1.16;61.26
29461;BME280;16428;47.836;35.106;2023-02-23T07:18:17;102118.94;;;-0.94;58.97
29461;BME280;16428;47.836;35.106;2023-02-23T07:20:44;102124.47;;;-1.00;59.82
29461;BME280;16428;47.836;35.106;2023-02-23T07:23:13;102128.69;;;-0.96;61.85
29461;BME280;16428;47.836;35.106;2023-02-23T07:25:41;102130.66;;;-1.01;59.93
29461;BME280;16428;47.836;35.106;2023-02-23T07:28:09;102123.59;;;-0.80;60.57
29461;BME280;16428;47.836;35.106;2023-02-23T07:30:36;102138.13;;;-0.72;59.07
29461;BME280;16428;47.836;35.106;2023-02-23T07:33:04;102135.41;;;-0.89;60.30
29461;BME280;16428;47.836;35.106;2023-02-23T07:35:31;102137.56;;;-0.59;60.04
29461;BME280;16428;47.836;35.106;2023-02-23T07:38:00;102137.25;;;-0.91;59.96
29461;BME280;16428;47.836;35.106;2023-02-23T07:40:27;102136.91;;;-0.46;59.59
29461;BME280;16428;47.836;35.106;2023-02-23T07:42:55;102144.16;;;-0.49;58.20
29461;BME280;16428;47.836;35.106;2023-02-23T07:45:22;102152.41;;;-0.38;56.45
29461;BME280;16428;47.836;35.106;2023-02-23T07:47:51;102153.06;;;-0.33;58.82
29461;BME280;16428;47.836;35.106;2023-02-23T07:50:18;102161.97;;;-0.54;57.33
29461;BME280;16428;47.836;35.106;2023-02-23T07:52:46;102162.97;;;-0.38;58.77
29461;BME280;16428;47.836;35.106;2023-02-23T07:55:13;102162.31;;;-0.43;59.89
29461;BME280;16428;47.836;35.106;2023-02-23T07:57:43;102166.34;;;-0.16;58.84
29461;BME280;16428;47.836;35.106;2023-02-23T08:00:11;102162.69;;;-0.32;56.05
29461;BME280;16428;47.836;35.106;2023-02-23T08:02:40;102168.25;;;-0.19;58.09
29461;BME280;16428;47.836;35.106;2023-02-23T08:05:09;102174.19;;;0.22;57.68
29461;BME280;16428;47.836;35.106;2023-02-23T08:07:38;102168.28;;;0.34;57.74
29461;BME280;16428;47.836;35.106;2023-02-23T08:10:05;102183.28;;;0.33;57.20
29461;BME280;16428;47.836;35.106;2023-02-23T08:12:34;102179.13;;;0.11;55.50
29461;BME280;16428;47.836;35.106;2023-02-23T08:15:03;102178.47;;;-0.49;55.75
29461;BME280;16428;47.836;35.106;2023-02-23T08:17:38;102177.66;;;-0.51;57.70
29461;BME280;16428;47.836;35.106;2023-02-23T08:20:06;102172.69;;;-0.20;57.42
29461;BME280;16428;47.836;35.106;2023-02-23T08:22:35;102175.97;;;-0.33;56.60
29461;BME280;16428;47.836;35.106;2023-02-23T08:25:16;102178.09;;;-0.23;55.33
29461;BME280;16428;47.836;35.106;2023-02-23T08:27:47;102179.47;;;-0.52;56.72
29461;BME280;16428;47.836;35.106;2023-02-23T08:30:15;102173.53;;;-0.38;56.59
29461;BME280;16428;47.836;35.106;2023-02-23T08:32:43;102167.19;;;0.21;57.66
29461;BME280;16428;47.836;35.106;2023-02-23T08:35:11;102176.69;;;0.25;56.69
29461;BME280;16428;47.836;35.106;2023-02-23T08:37:39;102178.63;;;0.21;57.55
29461;BME280;16428;47.836;35.106;2023-02-23T08:40:09;102184.16;;;0.51;56.75
29461;BME280;16428;47.836;35.106;2023-02-23T08:42:46;102180.66;;;-0.03;55.94
29461;BME280;16428;47.836;35.106;2023-02-23T08:45:15;102183.63;;;0.45;57.51
29461;BME280;16428;47.836;35.106;2023-02-23T08:47:43;102189.25;;;0.90;55.53
29461;BME280;16428;47.836;35.106;2023-02-23T08:50:12;102184.34;;;0.65;55.92
29461;BME280;16428;47.836;35.106;2023-02-23T08:52:40;102196.63;;;0.66;56.68
29461;BME280;16428;47.836;35.106;2023-02-23T08:55:13;102191.25;;;0.68;54.80
29461;BME280;16428;47.836;35.106;2023-02-23T08:57:43;102185.91;;;0.69;55.71
29461;BME280;16428;47.836;35.106;2023-02-23T09:00:11;102191.91;;;1.23;56.15
29461;BME280;16428;47.836;35.106;2023-02-23T09:02:44;102189.63;;;0.65;54.25
29461;BME280;16428;47.836;35.106;2023-02-23T09:05:15;102191.91;;;0.90;55.24
29461;BME280;16428;47.836;35.106;2023-02-23T09:07:46;102191.50;;;1.64;52.35
29461;BME280;16428;47.836;35.106;2023-02-23T09:10:18;102189.34;;;1.70;53.57
29461;BME280;16428;47.836;35.106;2023-02-23T09:12:46;102188.44;;;1.87;52.17
29461;BME280;16428;47.836;35.106;2023-02-23T09:15:14;102186.53;;;1.89;52.08
29461;BME280;16428;47.836;35.106;2023-02-23T09:17:41;102188.59;;;2.16;51.91
29461;BME280;16428;47.836;35.106;2023-02-23T09:20:11;102189.97;;;2.23;51.69
29461;BME280;16428;47.836;35.106;2023-02-23T09:22:41;102200.91;;;1.85;51.81
29461;BME280;16428;47.836;35.106;2023-02-23T09:25:16;102190.72;;;1.29;50.85
29461;BME280;16428;47.836;35.106;2023-02-23T09:27:50;102194.34;;;1.44;49.98
29461;BME280;16428;47.836;35.106;2023-02-23T09:30:19;102205.56;;;1.49;51.48
29461;BME280;16428;47.836;35.106;2023-02-23T09:32:51;102204.47;;;1.68;52.08
29461;BME280;16428;47.836;35.106;2023-02-23T09:35:22;102198.34;;;1.99;51.33
29461;BME280;16428;47.836;35.106;2023-02-23T09:37:53;102202.75;;;2.46;50.07
29461;BME280;16428;47.836;35.106;2023-02-23T09:40:26;102198.34;;;2.91;50.04
29461;BME280;16428;47.836;35.106;2023-02-23T09:43:05;102206.28;;;1.84;47.46
29461;BME280;16428;47.836;35.106;2023-02-23T09:45:41;102199.97;;;1.86;50.61
29461;BME280;16428;47.836;35.106;2023-02-23T09:48:20;102201.84;;;2.61;49.89
29461;BME280;16428;47.836;35.106;2023-02-23T09:50:53;102204.66;;;2.44;49.85
29461;BME280;16428;47.836;35.106;2023-02-23T09:53:33;102204.50;;;2.61;50.02
29461;BME280;16428;47.836;35.106;2023-02-23T09:56:22;102204.81;;;3.01;49.88
29461;BME280;16428;47.836;35.106;2023-02-23T09:58:51;102203.03;;;2.71;49.09
29461;BME280;16428;47.836;35.106;2023-02-23T10:03:57;102204.00;;;2.70;49.98
29461;BME280;16428;47.836;35.106;2023-02-23T10:06:26;102196.44;;;2.93;49.44
29461;BME280;16428;47.836;35.106;2023-02-23T10:11:46;102197.72;;;3.01;48.19
29461;BME280;16428;47.836;35.106;2023-02-23T10:14:33;102203.81;;;3.60;48.69
29461;BME280;16428;47.836;35.106;2023-02-23T10:17:28;102202.63;;;2.93;47.83
29461;BME280;16428;47.836;35.106;2023-02-23T10:22:41;102191.09;;;2.48;48.79
29461;BME280;16428;47.836;35.106;2023-02-23T10:25:23;102197.84;;;3.28;48.35
29461;BME280;16428;47.836;35.106;2023-02-23T10:27:52;102193.88;;;2.91;48.51
29461;BME280;16428;47.836;35.106;2023-02-23T10:30:24;102200.28;;;3.17;48.39
29461;BME280;16428;47.836;35.106;2023-02-23T10:33:06;102197.03;;;3.83;47.13
29461;BME280;16428;47.836;35.106;2023-02-23T10:35:38;102194.59;;;3.23;46.01
29461;BME280;16428;47.836;35.106;2023-02-23T10:38:08;102184.66;;;3.27;47.62
29461;BME280;16428;47.836;35.106;2023-02-23T10:40:40;102189.81;;;3.85;46.48
29461;BME280;16428;47.836;35.106;2023-02-23T10:43:10;102187.22;;;3.98;47.03
29461;BME280;16428;47.836;35.106;2023-02-23T10:45:44;102187.69;;;4.04;45.18
29461;BME280;16428;47.836;35.106;2023-02-23T10:48:17;102182.53;;;2.59;47.46
29461;BME280;16428;47.836;35.106;2023-02-23T10:50:48;102185.94;;;3.91;46.09
29461;BME280;16428;47.836;35.106;2023-02-23T10:53:23;102183.78;;;3.69;46.34
29461;BME280;16428;47.836;35.106;2023-02-23T10:56:00;102195.09;;;3.58;43.53
29461;BME280;16428;47.836;35.106;2023-02-23T10:58:29;102187.66;;;3.92;45.18
29461;BME280;16428;47.836;35.106;2023-02-23T11:01:00;102188.88;;;4.27;43.74
29461;BME280;16428;47.836;35.106;2023-02-23T11:03:32;102190.06;;;4.36;44.05
29461;BME280;16428;47.836;35.106;2023-02-23T11:06:02;102186.09;;;4.29;45.28
29461;BME280;16428;47.836;35.106;2023-02-23T11:08:35;102193.69;;;4.35;45.05
29461;BME280;16428;47.836;35.106;2023-02-23T11:11:19;102187.19;;;4.26;44.27
29461;BME280;16428;47.836;35.106;2023-02-23T11:13:51;102188.09;;;3.98;45.06
29461;BME280;16428;47.836;35.106;2023-02-23T11:16:22;102199.63;;;4.26;44.57
29461;BME280;16428;47.836;35.106;2023-02-23T11:18:57;102198.78;;;3.70;43.84
29461;BME280;16428;47.836;35.106;2023-02-23T11:21:37;102186.78;;;4.45;43.23
29461;BME280;16428;47.836;35.106;2023-02-23T11:24:13;102199.63;;;3.56;46.48
29461;BME280;16428;47.836;35.106;2023-02-23T11:26:47;102198.13;;;3.52;46.06
29461;BME280;16428;47.836;35.106;2023-02-23T11:29:24;102197.66;;;3.60;46.09
29461;BME280;16428;47.836;35.106;2023-02-23T11:31:56;102196.59;;;3.62;45.08
29461;BME280;16428;47.836;35.106;2023-02-23T11:34:34;102200.31;;;3.60;46.28
29461;BME280;16428;47.836;35.106;2023-02-23T11:42:20;102196.94;;;2.99;46.54
29461;BME280;16428;47.836;35.106;2023-02-23T11:45:16;102193.34;;;3.85;46.62
29461;BME280;16428;47.836;35.106;2023-02-23T11:47:48;102198.41;;;3.47;45.77
29461;BME280;16428;47.836;35.106;2023-02-23T11:50:31;102195.88;;;4.01;45.23
29461;BME280;16428;47.836;35.106;2023-02-23T11:53:13;102192.88;;;3.79;46.50
29461;BME280;16428;47.836;35.106;2023-02-23T11:55:50;102190.94;;;4.09;46.02
29461;BME280;16428;47.836;35.106;2023-02-23T12:01:11;102194.66;;;3.93;45.98
29461;BME280;16428;47.836;35.106;2023-02-23T12:04:06;102198.00;;;4.23;43.94
29461;BME280;16428;47.836;35.106;2023-02-23T12:06:38;102194.72;;;3.64;45.25
29461;BME280;16428;47.836;35.106;2023-02-23T12:11:42;102187.56;;;3.22;45.64
29461;BME280;16428;47.836;35.106;2023-02-23T12:14:25;102199.56;;;3.99;45.02
29461;BME280;16428;47.836;35.106;2023-02-23T12:17:11;102188.81;;;3.73;45.81
29461;BME280;16428;47.836;35.106;2023-02-23T12:19:48;102192.44;;;3.44;45.00
29461;BME280;16428;47.836;35.106;2023-02-23T12:22:19;102190.88;;;3.97;45.73
29461;BME280;16428;47.836;35.106;2023-02-23T12:25:02;102199.66;;;4.11;46.38
29461;BME280;16428;47.836;35.106;2023-02-23T12:27:36;102191.91;;;3.94;44.25
29461;BME280;16428;47.836;35.106;2023-02-23T12:30:37;102204.03;;;3.98;44.45
29461;BME280;16428;47.836;35.106;2023-02-23T12:33:18;102189.88;;;4.39;43.59
29461;BME280;16428;47.836;35.106;2023-02-23T12:35:58;102203.06;;;4.13;44.10
29461;BME280;16428;47.836;35.106;2023-02-23T12:41:12;102201.22;;;3.87;44.80
29461;BME280;16428;47.836;35.106;2023-02-23T12:43:51;102205.97;;;4.50;43.83
29461;BME280;16428;47.836;35.106;2023-02-23T12:46:28;102213.34;;;4.99;42.50
29461;BME280;16428;47.836;35.106;2023-02-23T12:49:39;102215.88;;;4.48;42.21
29461;BME280;16428;47.836;35.106;2023-02-23T12:52:09;102212.72;;;3.87;42.55
29461;BME280;16428;47.836;35.106;2023-02-23T12:54:42;102208.91;;;3.92;44.14
29461;BME280;16428;47.836;35.106;2023-02-23T13:00:49;102215.41;;;4.14;43.75
29461;BME280;16428;47.836;35.106;2023-02-23T13:09:10;102228.94;;;5.55;41.10
29461;BME280;16428;47.836;35.106;2023-02-23T13:11:53;102227.63;;;5.74;40.76
29461;BME280;16428;47.836;35.106;2023-02-23T13:17:07;102227.19;;;6.05;38.86
29461;BME280;16428;47.836;35.106;2023-02-23T13:19:52;102231.47;;;5.70;39.42
29461;BME280;16428;47.836;35.106;2023-02-23T13:22:36;102220.78;;;4.93;41.05
29461;BME280;16428;47.836;35.106;2023-02-23T13:27:48;102224.13;;;6.46;39.11
29461;BME280;16428;47.836;35.106;2023-02-23T13:30:18;102235.22;;;5.80;38.24
29461;BME280;16428;47.836;35.106;2023-02-23T13:32:47;102229.94;;;6.04;38.56
29461;BME280;16428;47.836;35.106;2023-02-23T13:35:17;102229.53;;;5.84;39.05
29461;BME280;16428;47.836;35.106;2023-02-23T13:37:54;102235.47;;;6.13;38.48
29461;BME280;16428;47.836;35.106;2023-02-23T13:43:20;102243.81;;;5.96;38.95
29461;BME280;16428;47.836;35.106;2023-02-23T13:46:30;102236.69;;;5.71;39.04
29461;BME280;16428;47.836;35.106;2023-02-23T13:49:21;102250.59;;;6.73;38.18
29461;BME280;16428;47.836;35.106;2023-02-23T13:51:58;102243.81;;;6.69;37.21
29461;BME280;16428;47.836;35.106;2023-02-23T13:54:31;102239.38;;;6.92;37.59
29461;BME280;16428;47.836;35.106;2023-02-23T13:57:02;102246.66;;;6.90;36.65
29461;BME280;16428;47.836;35.106;2023-02-23T13:59:41;102248.66;;;5.78;38.84
29461;BME280;16428;47.836;35.106;2023-02-23T14:02:38;102245.88;;;5.92;38.69
29461;BME280;16428;47.836;35.106;2023-02-23T14:05:20;102244.91;;;5.55;38.55
29461;BME280;16428;47.836;35.106;2023-02-23T14:07:53;102248.63;;;5.15;39.39
29461;BME280;16428;47.836;35.106;2023-02-23T14:10:42;102244.22;;;4.88;40.41
29461;BME280;16428;47.836;35.106;2023-02-23T14:22:31;102235.50;;;2.91;45.52
29461;BME280;16428;47.836;35.106;2023-02-23T14:24:33;102242.03;;;2.55;46.45
29461;BME280;16428;47.836;35.106;2023-02-23T14:30:24;102241.97;;;2.09;47.11
29461;BME280;16428;47.836;35.106;2023-02-23T14:32:53;102243.84;;;2.07;48.74
29461;BME280;16428;47.836;35.106;2023-02-23T14:38:03;102247.09;;;2.13;48.26